createdAt,value
2018-01-03T06:26:21.720Z,2.50
2018-01-03T06:28:53.642Z,2.17
2018-01-03T06:31:26.246Z,2.30
2018-01-03T06:33:58.130Z,2.40
2018-01-03T06:36:30.014Z,3.13
2018-01-03T06:39:02.651Z,2.37
2018-01-03T06:41:35.306Z,2.70
2018-01-03T06:44:07.296Z,2.60
2018-01-03T06:46:39.162Z,2.90
2018-01-03T06:49:11.057Z,3.13
2018-01-03T06:51:43.690Z,2.63
2018-01-03T06:54:15.572Z,3.07
2018-01-03T06:56:47.434Z,3.23
2018-01-03T06:59:19.330Z,2.83
2018-01-03T07:01:51.207Z,3.33
2018-01-03T07:04:23.095Z,3.07
2018-01-03T07:06:54.962Z,3.27
2018-01-03T07:09:26.849Z,3.13
2018-01-03T07:11:59.499Z,2.90
2018-01-03T07:14:31.383Z,3.30
2018-01-03T07:17:04.032Z,2.93
2018-01-03T07:19:35.907Z,3.00
2018-01-03T07:22:07.776Z,3.80
2018-01-03T07:24:39.682Z,3.00
2018-01-03T07:27:11.692Z,3.60
2018-01-03T07:29:44.399Z,2.73
2018-01-03T07:32:17.035Z,3.67
2018-01-03T07:34:48.948Z,3.80
2018-01-03T07:37:20.816Z,3.07
2018-01-03T07:39:52.718Z,3.00
2018-01-03T07:42:24.586Z,4.00
2018-01-03T07:44:56.490Z,3.33
2018-01-03T07:47:28.364Z,4.30
2018-01-03T07:50:00.258Z,3.43
2018-01-03T07:52:32.130Z,3.50
2018-01-03T07:55:04.020Z,4.07
2018-01-03T07:57:36.662Z,3.70
2018-01-03T08:00:08.547Z,3.60
2018-01-03T08:02:41.194Z,3.43
2018-01-03T08:05:13.191Z,2.87
2018-01-03T08:07:45.814Z,3.20
2018-01-03T08:10:17.698Z,3.63
2018-01-03T08:12:49.563Z,3.47
2018-01-03T08:15:21.472Z,2.90
2018-01-03T08:17:53.347Z,3.17
2018-01-03T08:20:25.252Z,4.27
2018-01-03T08:22:57.120Z,4.03
2018-01-03T08:25:29.779Z,3.70
2018-01-03T08:28:01.651Z,3.60
2018-01-03T08:30:34.317Z,4.17
2018-01-03T08:33:06.182Z,4.13
2018-01-03T08:35:38.077Z,4.20
2018-01-03T08:38:09.938Z,4.80
2018-01-03T08:40:41.826Z,4.13
2018-01-03T08:43:13.686Z,5.10
2018-01-03T08:45:45.586Z,4.17
2018-01-03T08:48:17.451Z,3.53
2018-01-03T08:50:50.120Z,3.60
2018-01-03T08:53:21.978Z,3.63
2018-01-03T08:55:53.874Z,3.23
2018-01-03T08:58:25.743Z,4.07
2018-01-03T09:00:57.638Z,3.73
2018-01-03T09:03:29.505Z,3.80
2018-01-03T09:06:01.725Z,4.00
2018-01-03T09:08:33.591Z,3.30
2018-01-03T09:11:05.496Z,3.17
2018-01-03T09:13:37.368Z,3.43
2018-01-03T09:16:09.271Z,2.73
2018-01-03T09:18:41.152Z,3.53
2018-01-03T09:21:13.047Z,3.50
2018-01-03T09:23:44.919Z,3.47
2018-01-03T09:26:17.586Z,3.97
2018-01-03T09:28:49.453Z,3.80
2018-01-03T09:31:21.347Z,3.83
2018-01-03T09:33:53.226Z,3.77
2018-01-03T09:36:25.121Z,4.10
2018-01-03T09:38:56.995Z,3.43
2018-01-03T09:41:28.886Z,3.43
2018-01-03T09:44:00.763Z,3.80
2018-01-03T09:46:32.648Z,3.23
2018-01-03T09:49:04.552Z,3.83
2018-01-03T09:51:37.203Z,3.40
2018-01-03T09:54:09.102Z,3.67
2018-01-03T09:56:40.987Z,3.70
2018-01-03T09:59:12.859Z,3.43
2018-01-03T10:01:44.754Z,3.37
2018-01-03T10:04:16.623Z,3.53
2018-01-03T10:06:49.270Z,3.20
2018-01-03T10:09:21.137Z,3.30
2018-01-03T10:11:53.023Z,3.17
2018-01-03T10:14:25.656Z,2.93
2018-01-03T10:16:57.557Z,3.03
2018-01-03T10:19:30.187Z,3.70
2018-01-03T10:22:02.075Z,3.63
2018-01-03T10:24:33.947Z,3.43
2018-01-03T10:27:05.846Z,3.83
2018-01-03T10:29:37.716Z,3.00
2018-01-03T10:32:09.604Z,3.30
2018-01-03T10:34:42.242Z,3.50
2018-01-03T10:37:14.130Z,3.63
2018-01-03T10:39:46.011Z,4.53
2018-01-03T10:42:18.223Z,3.73
2018-01-03T10:44:50.091Z,4.00
2018-01-03T10:47:21.983Z,3.30
2018-01-03T10:49:53.855Z,3.67
2018-01-03T10:52:25.746Z,3.37
2018-01-03T10:54:58.395Z,3.77
2018-01-03T10:57:30.279Z,4.03
2018-01-03T11:00:02.916Z,3.73
2018-01-03T11:02:34.794Z,3.33
2018-01-03T11:05:06.683Z,3.93
2018-01-03T11:07:39.381Z,3.73
2018-01-03T11:10:11.247Z,4.17
2018-01-03T11:12:43.139Z,4.23
2018-01-03T11:15:15.016Z,4.30
2018-01-03T11:17:46.917Z,4.83
2018-01-03T11:20:18.799Z,3.63
2018-01-03T11:22:50.738Z,3.80
2018-01-03T11:25:24.180Z,4.33
2018-01-03T11:27:56.083Z,3.83
2018-01-03T11:30:28.727Z,3.87
2018-01-03T11:33:00.641Z,3.73
2018-01-03T11:35:32.515Z,3.67
2018-01-03T11:38:04.406Z,4.10
2018-01-03T11:40:36.286Z,3.97
2018-01-03T11:43:08.975Z,3.60
2018-01-03T11:45:41.606Z,4.20
2018-01-03T11:48:14.304Z,4.30
2018-01-03T11:50:46.175Z,4.00
2018-01-03T11:53:18.088Z,3.47
2018-01-03T11:55:49.955Z,4.67
2018-01-03T11:58:21.854Z,4.47
2018-01-03T12:00:53.719Z,4.60
2018-01-03T12:03:25.619Z,4.23
2018-01-03T12:05:57.491Z,4.23
2018-01-03T12:08:29.374Z,4.17
2018-01-03T12:11:01.246Z,3.90
2018-01-03T12:13:33.134Z,4.07
2018-01-03T12:16:05.770Z,4.50
2018-01-03T12:18:37.676Z,4.37
2018-01-03T12:21:10.364Z,4.00
2018-01-03T12:23:43.017Z,4.33
2018-01-03T12:26:14.897Z,4.43
2018-01-03T12:28:47.551Z,4.20
2018-01-03T12:31:19.427Z,4.47
2018-01-03T12:33:52.083Z,4.00
2018-01-03T12:36:23.960Z,4.23
2018-01-03T12:38:55.861Z,4.03
2018-01-03T12:41:27.727Z,3.80
2018-01-03T12:43:59.624Z,3.90
2018-01-03T12:46:31.505Z,4.33
2018-01-03T12:49:04.159Z,3.93
2018-01-03T12:51:36.024Z,4.00
2018-01-03T12:54:07.928Z,3.77
2018-01-03T12:56:39.800Z,4.20
2018-01-03T12:59:11.683Z,3.83
2018-01-03T13:01:43.594Z,3.63
2018-01-03T13:04:16.255Z,4.73
2018-01-03T13:06:48.130Z,3.77
2018-01-03T13:09:20.795Z,3.57
2018-01-03T13:11:53.431Z,4.00
2018-01-03T13:14:25.339Z,4.40
2018-01-03T13:16:57.202Z,4.00
2018-01-03T13:19:29.864Z,4.33
2018-01-03T13:22:01.731Z,3.83
2018-01-03T13:24:34.392Z,3.83
2018-01-03T13:27:06.262Z,3.77
2018-01-03T13:29:38.938Z,3.50
2018-01-03T13:32:10.807Z,4.00
2018-01-03T13:34:43.464Z,3.50
2018-01-03T13:37:15.331Z,3.83
2018-01-03T13:39:47.235Z,3.87
2018-01-03T13:42:19.098Z,4.83
2018-01-03T13:44:51.000Z,4.17
2018-01-03T13:47:22.866Z,3.73
2018-01-03T13:49:54.774Z,3.53
2018-01-03T13:52:26.659Z,3.93
2018-01-03T13:54:58.551Z,3.47
2018-01-03T13:57:30.424Z,4.10
2018-01-03T14:00:02.309Z,3.47
2018-01-03T14:02:34.179Z,3.83
2018-01-03T14:05:06.071Z,3.90
2018-01-03T14:07:37.945Z,3.33
2018-01-03T14:10:09.839Z,3.17
2018-01-03T14:12:42.466Z,3.93
2018-01-03T14:15:14.360Z,3.33
2018-01-03T14:17:46.231Z,3.57
2018-01-03T14:20:18.895Z,4.40
2018-01-03T14:22:50.767Z,3.97
2018-01-03T14:25:23.438Z,3.93
2018-01-03T14:27:55.294Z,4.30
2018-01-03T14:30:27.227Z,4.13
2018-01-03T14:32:59.110Z,4.27
2018-01-03T14:35:31.010Z,3.90
2018-01-03T14:38:02.876Z,4.00
2018-01-03T14:40:34.867Z,4.40
2018-01-03T14:43:06.831Z,4.60
2018-01-03T14:45:38.722Z,4.10
2018-01-03T14:48:10.667Z,3.80
2018-01-03T14:50:42.616Z,3.90
2018-01-03T14:53:14.950Z,4.00
2018-01-03T14:55:46.962Z,3.93
2018-01-03T14:58:18.838Z,4.63
2018-01-03T15:00:50.742Z,4.47
2018-01-03T15:03:22.631Z,4.17
2018-01-03T15:05:54.535Z,3.67
2018-01-03T15:08:27.172Z,3.97
2018-01-03T15:10:59.071Z,3.50
2018-01-03T15:13:31.711Z,3.93
2018-01-03T15:16:03.606Z,4.13
2018-01-03T15:18:36.234Z,3.97
2018-01-03T15:21:08.207Z,5.00
2018-01-03T15:23:40.071Z,3.57
2018-01-03T15:26:11.968Z,4.57
2018-01-03T15:28:44.594Z,4.40
2018-01-03T15:31:16.497Z,4.60
2018-01-03T15:33:48.372Z,4.07
2018-01-03T15:36:21.039Z,4.43
2018-01-03T15:38:53.672Z,4.10
2018-01-03T15:41:25.567Z,3.83
2018-01-03T15:43:57.436Z,4.50
2018-01-03T15:46:30.087Z,4.73
2018-01-03T15:49:02.044Z,4.43
2018-01-03T15:51:33.943Z,5.33
2018-01-03T15:54:06.580Z,4.30
2018-01-03T15:56:38.471Z,5.03
2018-01-03T15:59:10.343Z,4.43
2018-01-03T16:01:43.004Z,5.30
2018-01-03T16:04:14.870Z,4.43
2018-01-03T16:06:46.770Z,4.93
2018-01-03T16:09:18.643Z,4.63
2018-01-03T16:11:50.539Z,4.17
2018-01-03T16:14:22.406Z,3.93
2018-01-03T16:16:54.376Z,4.17
2018-01-03T16:19:27.006Z,5.83
2018-01-03T16:21:58.894Z,4.57
2018-01-03T16:24:30.767Z,4.37
2018-01-03T16:27:02.648Z,4.83
2018-01-03T16:29:35.282Z,4.63
2018-01-03T16:32:07.172Z,4.77
2018-01-03T16:34:39.808Z,4.83
2018-01-03T16:37:11.695Z,5.37
2018-01-03T16:39:43.559Z,5.57
2018-01-03T16:42:15.462Z,5.80
2018-01-03T16:44:47.332Z,5.27
2018-01-03T16:47:19.223Z,6.33
2018-01-03T16:49:51.088Z,6.60
2018-01-03T16:52:22.995Z,6.40
2018-01-03T16:54:54.870Z,5.63
2018-01-03T16:57:26.774Z,4.87
2018-01-03T16:59:58.646Z,5.33
2018-01-03T17:02:31.303Z,7.17
2018-01-03T17:05:03.179Z,5.80
2018-01-03T17:07:35.087Z,6.77
2018-01-03T17:10:06.952Z,5.37
2018-01-03T17:12:38.855Z,4.70
2018-01-03T17:15:10.715Z,5.10
2018-01-03T17:17:42.616Z,5.30
2018-01-03T17:20:14.489Z,5.87
2018-01-03T17:22:46.386Z,5.03
2018-01-03T17:25:18.271Z,5.87
2018-01-03T17:27:50.935Z,4.90
2018-01-03T17:30:22.807Z,5.67
2018-01-03T17:32:55.459Z,4.90
2018-01-03T17:35:27.430Z,5.43
2018-01-03T17:37:59.322Z,5.30
2018-01-03T17:40:31.190Z,6.27
2018-01-03T17:43:03.354Z,5.93
2018-01-03T17:45:35.228Z,6.10
2018-01-03T17:48:07.120Z,5.80
2018-01-03T17:50:38.997Z,6.20
2018-01-03T17:53:10.896Z,6.13
2018-01-03T17:55:42.754Z,6.93
2018-01-03T17:58:14.643Z,6.47
2018-01-03T18:00:46.515Z,8.93
2018-01-03T18:03:18.410Z,9.37
2018-01-03T18:05:51.042Z,7.70
2018-01-03T18:08:22.939Z,8.23
2018-01-03T18:10:54.814Z,6.93
2018-01-03T18:13:27.470Z,6.20
2018-01-03T18:15:59.346Z,7.47
2018-01-03T18:18:32.034Z,7.73
2018-01-03T18:21:04.667Z,7.10
2018-01-03T18:23:37.335Z,7.23
2018-01-03T18:26:09.223Z,7.17
2018-01-03T18:28:41.147Z,7.07
2018-01-03T18:31:13.023Z,6.53
2018-01-03T18:33:44.904Z,7.67
2018-01-03T18:36:16.771Z,7.57
2018-01-03T18:38:48.659Z,6.07
2018-01-03T18:41:21.291Z,7.40
2018-01-03T18:43:53.194Z,7.33
2018-01-03T18:46:25.066Z,7.43
2018-01-03T18:48:56.961Z,7.10
2018-01-03T18:51:28.827Z,8.07
2018-01-03T18:54:00.721Z,7.63
2018-01-03T18:56:32.592Z,8.07
2018-01-03T18:59:05.283Z,8.03
2018-01-03T19:01:37.176Z,6.80
2018-01-03T19:04:09.307Z,6.73
2018-01-03T19:06:41.183Z,7.30
2018-01-03T19:09:13.083Z,6.70
2018-01-03T19:11:44.956Z,7.00
2018-01-03T19:14:16.847Z,7.70
2018-01-03T19:16:48.734Z,8.63
2018-01-03T19:19:20.610Z,7.90
2018-01-03T19:21:52.582Z,7.67
2018-01-03T19:24:24.468Z,8.03
2018-01-03T19:26:56.366Z,8.03
2018-01-03T19:29:28.282Z,6.63
2018-01-03T19:32:00.150Z,7.40
2018-01-03T19:34:32.808Z,7.97
2018-01-03T19:37:04.685Z,8.20
2018-01-03T19:39:36.578Z,7.37
2018-01-03T19:42:08.494Z,7.83
2018-01-03T19:44:40.403Z,6.77
2018-01-03T19:47:12.271Z,6.80
2018-01-03T19:49:44.183Z,6.70
2018-01-03T19:52:16.064Z,7.53
2018-01-03T19:54:48.720Z,6.90
2018-01-03T19:57:20.594Z,6.70
2018-01-03T19:59:53.255Z,6.40
2018-01-03T20:02:25.127Z,7.43
2018-01-03T20:04:57.791Z,6.80
2018-01-03T20:07:29.666Z,7.90
2018-01-03T20:10:02.346Z,6.60
2018-01-03T20:12:35.035Z,6.53
2018-01-03T20:15:06.946Z,6.10
2018-01-03T20:17:38.827Z,8.07
2018-01-03T20:20:10.727Z,8.40
2018-01-03T20:22:42.611Z,7.73
2018-01-03T20:25:14.542Z,7.60
2018-01-03T20:27:46.384Z,7.67
2018-01-03T20:30:18.285Z,8.63
2018-01-03T20:32:50.280Z,7.33
2018-01-03T20:35:22.191Z,7.50
2018-01-03T20:37:54.077Z,7.83
2018-01-03T20:40:25.963Z,7.33
2018-01-03T20:42:57.846Z,8.23
2018-01-03T20:45:29.735Z,7.73
2018-01-03T20:48:01.611Z,7.50
2018-01-03T20:50:33.506Z,6.60
2018-01-03T20:53:05.379Z,6.73
2018-01-03T20:55:37.270Z,7.70
2018-01-03T20:58:09.138Z,8.17
2018-01-03T21:00:41.035Z,7.87
2018-01-03T21:03:12.902Z,8.17
2018-01-03T21:05:44.800Z,8.33
2018-01-03T21:08:17.436Z,8.70
2018-01-03T21:10:49.336Z,9.00
2018-01-03T21:13:22.012Z,8.63
2018-01-03T21:15:54.007Z,8.23
2018-01-03T21:18:25.985Z,8.60
2018-01-03T21:20:57.913Z,8.83
2018-01-03T21:23:29.787Z,9.67
